Página principal
METAR-TAF:

Aeroportos :

Cambridge, Inglaterra

latitude: 52-12N, longitude: 000-11E, altura: 15 m

Observação actual do tempo

O boletim foi feito há 3 horas e 34 minutos, às 18:20 UTC
Vento 3 kt de nor-nordeste
Temperatura 22°C
Humidade 78%
Pressão 1013 hPa
Visibilidade 10 km ou mais
sem nuvens abaixo de 1500 metros e sem cumulonimbus

METAR: EGSC 251820Z 02003KT CAVOK 22/18 Q1013

Hora: 22:54 (21:54 UTC)

Previsão

O boletim foi feito há 7 horas e 55 minutos, às 13:59 UTC
Previsão válida de 25 às 15 UTC a 25 às 19 UTC
Vento 7 kt de nor-noroeste
Visibilidade: 8000 m
Poucas nuvensa uma altura de 2500 ft
Temporariamente
de 25 às 15 UTC a 25 às 19 UTC
Visibilidade 10 km ou mais
Probabilidade 30% :
Temporariamente
de 25 às 15 UTC a 25 às 19 UTC
aguaceiros de chuva

TAF: EGSC 251359Z 2515/2519 34007KT 8000 FEW025 TEMPO 2515/2519 9999 PROB30 TEMPO 2515/2519 SHRA

METAR-TAF

Observações e previsões do tempo de mais de 4000 aeroportos (mensagens METAR e TAF).

As estações disponíveis são os pontos amarelos e vermelhos sobre o mapa.

Mova o rato sobre o mapa para ver o nome da estação.

Depois clique no ponto para visualizar as observações e previsões meteorológicas.

Para alterar o mapa : clique nos botões verdes com uma cruz preta para aumentar o zoom; no botão verde com uma pitada de zoom; ou nas setas verdes para mapas adjacentes.


METAR-TAF: